Agonistis — SVBC3 — position and weather

sailwx.info

Track history (hours):
 
Tides and Currents Weather Stations Pressure Air Temp Water Temp Dewpoint Dewpoint Depression Visibility Wind Speed Wind Dir Waves Ship Positions

Agonistis

Last reported at 2016-May-03 20:20 UTC. Time now 2016-May-04 17:25 UTC.
Position N 01°15' E 104°04'.

Length 196 m; draft 12 m.

Type: Cargo ship. MMSI: 241048000.

Date/timePositionNaut miles runAvg speedWind from/ knotsBaromVisibWave heightAir tempDewpointWater temp
2016-May-03 20:20N 01°15' E 104°04'7 7.2
2016-May-03 19:20N 01°17' E 103°57'0 0.0
2016-May-03 14:17N 01°17' E 103°57'0 0.0
2016-May-03 13:29N 01°17' E 103°57'0 0.0
2016-May-03 12:29N 01°17' E 103°57'0 0.0
2016-May-03 11:32N 01°17' E 103°57'0 0.0
2016-May-03 10:29N 01°17' E 103°57'1 0.8
2016-May-03 09:33N 01°16' E 103°57'3 2.5
2016-May-03 08:33N 01°13' E 103°56'9 8.6
2016-May-03 07:33N 01°10' E 103°48'6 5.7
2016-May-03 06:33N 01°06' E 103°44'7 7.4
2016-May-03 05:33N 01°04' E 103°37'8 7.6
2016-May-03 04:33N 01°08' E 103°30'5911.2
2016-May-02 23:17N 01°41' E 102°41'912.3
2016-May-02 22:32N 01°45' E 102°33'1212.4
2016-May-02 21:33N 01°50' E 102°22'  
Track history (hours):
 
Tides and Currents Weather Stations Pressure Air Temp Water Temp Dewpoint Dewpoint Depression Visibility Wind Speed Wind Dir Waves Ship Positions

Agonistis

Last reported at 2016-May-03 20:20 UTC. Time now 2016-May-04 17:25 UTC.
Position N 01°15' E 104°04'.

Length 196 m; draft 12 m.

Type: Cargo ship. MMSI: 241048000.

Date/timePositionNaut miles runAvg speedWind from/ knotsBaromVisibWave heightAir tempDewpointWater temp
2016-May-03 20:20N 01°15' E 104°04'7 7.2
2016-May-03 19:20N 01°17' E 103°57'0 0.0
2016-May-03 14:17N 01°17' E 103°57'0 0.0
2016-May-03 13:29N 01°17' E 103°57'0 0.0
2016-May-03 12:29N 01°17' E 103°57'0 0.0
2016-May-03 11:32N 01°17' E 103°57'0 0.0
2016-May-03 10:29N 01°17' E 103°57'1 0.8
2016-May-03 09:33N 01°16' E 103°57'3 2.5
2016-May-03 08:33N 01°13' E 103°56'9 8.6
2016-May-03 07:33N 01°10' E 103°48'6 5.7
2016-May-03 06:33N 01°06' E 103°44'7 7.4
2016-May-03 05:33N 01°04' E 103°37'8 7.6
2016-May-03 04:33N 01°08' E 103°30'5911.2
2016-May-02 23:17N 01°41' E 102°41'912.3
2016-May-02 22:32N 01°45' E 102°33'1212.4
2016-May-02 21:33N 01°50' E 102°22'  

Dump ship's entire track history